Time;durP1;ratioP1;P1;durP2;ratioP2;P2;SDS_P1;SDS_P2;PMS_P1;PMS_P2;Temp;Humidity;BMP_temperature;BMP_pressure;BME280_temperature;BME280_humidity;BME280_pressure;Samples;Min_cycle;Max_cycle;Signal;HPM_P1;HPM_P2
2023/03/24 00:01:22;;;;;;;;;4.00;4.00;;;;;15.08;66.90;99585.19;5034762;28;45375;-55
2023/03/24 00:03:50;;;;;;;;;3.25;3.25;;;;;15.09;66.94;99594.34;5035017;28;46546;-55
2023/03/24 00:06:17;;;;;;;;;3.20;3.20;;;;;15.16;67.19;99590.19;5034113;28;45425;-54
2023/03/24 00:08:46;;;;;;;;;5.00;5.00;;;;;15.12;66.56;99596.53;5015929;28;45605;-55
2023/03/24 00:11:13;;;;;;;;;3.00;3.00;;;;;15.13;66.99;99592.66;5017531;28;45983;-57
2023/03/24 00:13:39;;;;;;;;;4.80;4.20;;;;;15.02;66.74;99578.84;5033281;28;46218;-55
2023/03/24 00:16:09;;;;;;;;;3.80;3.80;;;;;15.12;66.87;99586.31;5009460;28;45902;-54
2023/03/24 00:18:35;;;;;;;;;2.40;2.40;;;;;15.22;66.59;99613.19;5042098;28;45386;-55
2023/03/24 00:21:02;;;;;;;;;4.00;4.00;;;;;15.08;66.52;99581.59;5034980;28;45430;-54
2023/03/24 00:23:31;;;;;;;;;4.80;4.00;;;;;15.01;66.92;99568.03;5034678;28;46316;-54
2023/03/24 00:26:02;;;;;;;;;3.00;3.00;;;;;15.24;67.01;99607.34;5033682;28;45293;-54
2023/03/24 00:28:32;;;;;;;;;2.00;2.00;;;;;15.20;66.59;99604.31;5034630;28;45806;-56
2023/03/24 00:30:58;;;;;;;;;4.20;4.00;;;;;15.23;66.89;99600.16;5017195;28;45430;-59
2023/03/24 00:33:24;;;;;;;;;2.00;2.00;;;;;15.21;66.83;99605.97;5033544;28;45677;-57
2023/03/24 00:35:49;;;;;;;;;3.00;3.00;;;;;14.98;67.26;99580.47;5017067;28;45329;-58
2023/03/24 00:38:15;;;;;;;;;2.50;2.00;;;;;15.18;66.85;99589.94;5012562;27;45668;-51
2023/03/24 00:40:45;;;;;;;;;2.00;2.00;;;;;15.21;66.59;99617.00;5017488;28;45487;-56
2023/03/24 00:43:12;;;;;;;;;4.00;2.80;;;;;15.22;66.79;99626.16;5033700;28;46616;-55
2023/03/24 00:45:44;;;;;;;;;2.00;2.00;;;;;15.07;66.66;99605.66;5048247;28;45494;-55
2023/03/24 00:48:13;;;;;;;;;2.80;1.40;;;;;15.14;66.91;99639.38;5032643;28;45511;-53
2023/03/24 00:50:43;;;;;;;;;5.00;3.20;;;;;15.02;67.17;99608.38;5035591;28;45315;-57
2023/03/24 00:53:09;;;;;;;;;3.00;2.00;;;;;15.12;66.79;99641.59;4999369;28;46063;-58
2023/03/24 00:55:36;;;;;;;;;3.25;1.50;;;;;15.15;66.91;99654.88;5032210;28;45457;-57
2023/03/24 00:58:02;;;;;;;;;3.80;3.80;;;;;14.93;67.04;99616.34;5031118;28;45354;-58
2023/03/24 01:00:28;;;;;;;;;2.75;2.75;;;;;15.16;67.39;99652.94;5035309;28;45409;-57
2023/03/24 01:02:55;;;;;;;;;4.50;3.50;;;;;14.99;66.91;99614.47;5049938;28;45694;-58
2023/03/24 01:05:28;;;;;;;;;2.00;2.00;;;;;15.17;67.14;99649.88;5034948;28;45334;-60
2023/03/24 01:08:01;;;;;;;;;4.00;3.00;;;;;15.16;67.01;99647.41;5034819;28;45438;-57
2023/03/24 01:10:27;;;;;;;;;4.60;3.40;;;;;14.95;67.37;99608.66;5034810;28;45359;-58
2023/03/24 01:12:58;;;;;;;;;3.25;2.25;;;;;15.15;67.21;99627.22;5033357;28;45428;-59
2023/03/24 01:15:28;;;;;;;;;3.20;3.00;;;;;15.18;67.25;99634.16;5034479;28;45425;-57
2023/03/24 01:17:54;;;;;;;;;2.60;2.60;;;;;15.15;66.99;99632.75;5009900;28;45490;-58
2023/03/24 01:20:21;;;;;;;;;2.75;2.75;;;;;15.16;67.04;99647.41;5026173;28;45432;-58
2023/03/24 01:22:47;;;;;;;;;3.00;3.00;;;;;15.14;66.90;99649.59;5031770;28;46483;-57
2023/03/24 01:25:17;;;;;;;;;2.25;2.25;;;;;15.20;66.35;99650.47;5016856;28;45486;-58
2023/03/24 01:27:44;;;;;;;;;3.20;2.60;;;;;15.14;66.83;99641.31;5034703;28;45299;-57
2023/03/24 01:30:18;;;;;;;;;3.00;2.00;;;;;15.15;66.77;99642.97;5035140;28;45342;-58
2023/03/24 01:32:43;;;;;;;;;1.40;1.40;;;;;15.13;66.16;99647.94;5048802;28;45307;-56
2023/03/24 01:35:10;;;;;;;;;1.50;1.50;;;;;15.09;66.52;99646.84;5034251;28;45232;-57
2023/03/24 01:37:36;;;;;;;;;0.00;0.00;;;;;15.11;66.05;99650.16;5049762;28;45450;-58
2023/03/24 01:40:06;;;;;;;;;2.00;2.00;;;;;15.14;66.25;99646.84;5016927;28;45331;-58
2023/03/24 01:42:31;;;;;;;;;2.20;1.80;;;;;15.14;65.77;99655.13;5016693;28;45650;-59
2023/03/24 01:45:18;;;;;;;;;2.00;2.00;;;;;15.14;66.60;99639.38;5016479;28;45436;-59
2023/03/24 01:47:44;;;;;;;;;1.00;1.00;;;;;15.11;66.32;99644.63;5046215;28;45708;-59
2023/03/24 01:50:10;;;;;;;;;1.50;1.50;;;;;14.85;66.43;99612.19;5034492;28;45223;-58
2023/03/24 01:52:35;;;;;;;;;2.75;1.50;;;;;15.11;67.05;99656.50;5033614;28;45632;-58
2023/03/24 01:55:14;;;;;;;;;1.00;1.00;;;;;15.06;66.86;99659.25;5033765;28;45299;-59
2023/03/24 01:57:46;;;;;;;;;4.00;3.00;;;;;14.99;66.64;99661.44;5033731;28;45335;-58
2023/03/24 02:00:13;;;;;;;;;3.40;2.20;;;;;15.03;67.03;99668.91;5033304;28;45285;-57
2023/03/24 02:03:09;;;;;;;;;4.20;3.00;;;;;14.84;66.30;99626.25;5015052;28;46059;-58
2023/03/24 02:05:36;;;;;;;;;1.00;1.00;;;;;14.96;67.00;99640.69;5001733;28;45510;-58
2023/03/24 02:08:11;;;;;;;;;2.00;2.00;;;;;15.00;67.06;99641.78;5015982;28;45500;-58
2023/03/24 02:10:36;;;;;;;;;2.80;2.00;;;;;15.01;67.02;99645.41;5033997;28;45373;-58
2023/03/24 02:13:03;;;;;;;;;2.00;2.00;;;;;14.81;66.89;99616.56;5015677;28;47658;-58
2023/03/24 02:15:30;;;;;;;;;1.00;1.00;;;;;14.90;66.84;99628.75;5015751;28;45424;-60
2023/03/24 02:18:17;;;;;;;;;3.60;3.60;;;;;14.98;67.00;99627.44;4999399;28;45383;-57
2023/03/24 02:20:54;;;;;;;;;3.60;2.00;;;;;14.96;66.84;99646.22;5015961;28;45613;-58
2023/03/24 02:23:41;;;;;;;;;4.00;4.00;;;;;14.93;67.69;99649.50;5049239;28;45460;-56
2023/03/24 02:26:28;;;;;;;;;2.00;2.00;;;;;14.93;67.46;99646.75;5049220;28;45459;-58
2023/03/24 02:29:19;;;;;;;;;5.80;3.00;;;;;14.88;67.16;99657.75;5022924;28;46051;-60
2023/03/24 02:32:06;;;;;;;;;3.40;3.40;;;;;14.88;67.28;99671.56;5016973;28;45532;-58
2023/03/24 02:35:05;;;;;;;;;2.20;2.20;;;;;14.91;67.10;99673.81;5032000;28;46595;-59
2023/03/24 02:37:41;;;;;;;;;2.60;2.00;;;;;14.91;67.39;99673.81;5032143;28;45294;-57
2023/03/24 02:40:31;;;;;;;;;3.40;3.40;;;;;14.93;67.44;99676.31;5014217;28;45787;-58
2023/03/24 02:43:04;;;;;;;;;2.00;2.00;;;;;14.69;67.58;99649.06;5014090;28;45415;-58
2023/03/24 02:45:49;;;;;;;;;2.00;2.00;;;;;14.73;67.70;99652.97;5030222;28;45694;-57
2023/03/24 02:48:33;;;;;;;;;5.00;3.80;;;;;14.89;67.17;99668.53;5030692;28;45441;-59
2023/03/24 02:51:01;;;;;;;;;2.00;2.00;;;;;14.94;67.38;99686.25;5048517;28;45317;-58
2023/03/24 02:53:31;;;;;;;;;2.60;1.60;;;;;14.72;67.54;99648.50;5031842;28;45417;-58
2023/03/24 02:56:18;;;;;;;;;2.00;2.00;;;;;14.83;67.10;99666.03;5032878;28;46672;-58
2023/03/24 02:58:49;;;;;;;;;2.00;2.00;;;;;14.85;67.19;99674.88;5030437;28;45488;-58
2023/03/24 03:01:19;;;;;;;;;1.60;1.60;;;;;14.81;67.05;99670.97;5033153;28;45406;-58
2023/03/24 03:03:48;;;;;;;;;1.60;1.40;;;;;14.79;67.27;99671.25;5035271;28;45422;-57
2023/03/24 03:06:20;;;;;;;;;2.40;2.40;;;;;14.80;66.91;99669.31;5018147;28;49020;-58
2023/03/24 03:08:49;;;;;;;;;3.60;1.20;;;;;14.75;66.78;99690.28;5034673;28;45495;-58
2023/03/24 03:11:15;;;;;;;;;1.00;1.00;;;;;14.73;66.99;99699.91;5034942;28;45415;-59
2023/03/24 03:13:53;;;;;;;;;1.00;1.00;;;;;14.73;67.07;99703.47;5018719;28;45413;-57
2023/03/24 03:16:38;;;;;;;;;1.60;1.60;;;;;14.41;66.88;99671.22;5034975;28;47852;-58
2023/03/24 03:19:08;;;;;;;;;1.00;1.00;;;;;14.53;66.06;99697.81;5034458;28;45429;-57
2023/03/24 03:21:38;;;;;;;;;3.40;1.40;;;;;14.47;66.17;99714.31;5051104;28;45234;-58
2023/03/24 03:24:08;;;;;;;;;1.00;1.00;;;;;14.42;66.32;99700.50;5051541;28;45708;-58
2023/03/24 03:26:33;;;;;;;;;0.20;0.20;;;;;14.47;65.40;99711.56;5036303;28;45388;-58
2023/03/24 03:29:03;;;;;;;;;1.00;1.00;;;;;14.41;65.10;99707.09;5051656;28;45347;-62
2023/03/24 03:31:52;;;;;;;;;1.00;1.00;;;;;14.44;64.97;99701.06;5034713;28;45343;-58
2023/03/24 03:34:36;;;;;;;;;1.00;0.00;;;;;14.42;64.94;99707.94;5033606;28;45284;-57
2023/03/24 03:37:25;;;;;;;;;1.40;1.00;;;;;14.47;64.73;99719.84;5036063;28;46170;-59
2023/03/24 03:39:55;;;;;;;;;0.80;0.60;;;;;14.41;64.76;99733.88;5036179;28;45357;-58
2023/03/24 03:42:21;;;;;;;;;2.00;0.00;;;;;14.34;64.37;99732.19;5001793;28;45489;-57
2023/03/24 03:44:46;;;;;;;;;0.50;0.50;;;;;14.33;64.51;99729.66;5051159;28;45448;-57
2023/03/24 03:47:12;;;;;;;;;0.00;0.00;;;;;13.92;63.83;99664.72;5035480;28;45977;-57
2023/03/24 03:49:38;;;;;;;;;1.00;1.00;;;;;14.31;64.20;99726.34;5035680;28;45445;-57
2023/03/24 03:52:04;;;;;;;;;2.00;1.00;;;;;14.06;63.40;99698.25;5018593;28;45315;-57
2023/03/24 03:54:30;;;;;;;;;0.00;0.00;;;;;14.19;63.71;99710.78;5034230;28;45529;-57
2023/03/24 03:56:56;;;;;;;;;4.25;0.00;;;;;14.04;63.83;99683.06;5034080;28;45522;-55
2023/03/24 03:59:32;;;;;;;;;0.20;0.20;;;;;14.28;63.68;99740.66;5017560;28;45804;-57
2023/03/24 04:02:02;;;;;;;;;0.80;0.80;;;;;14.22;63.76;99739.78;5018686;28;45486;-57
2023/03/24 04:04:43;;;;;;;;;2.00;0.00;;;;;14.23;63.14;99747.81;5034185;28;45570;-56
2023/03/24 04:07:18;;;;;;;;;0.20;0.20;;;;;14.09;63.19;99728.06;5051291;28;45701;-59
2023/03/24 04:09:52;;;;;;;;;1.00;1.00;;;;;14.15;63.12;99726.19;5033795;28;45470;-57
2023/03/24 04:12:52;;;;;;;;;1.80;0.20;;;;;14.16;63.67;99738.91;5035843;28;45390;-57
2023/03/24 04:15:18;;;;;;;;;2.80;0.00;;;;;14.17;63.41;99736.97;5050992;28;45502;-58
2023/03/24 04:17:59;;;;;;;;;2.00;1.00;;;;;14.18;62.88;99733.94;5050789;28;48376;-58
2023/03/24 04:20:33;;;;;;;;;3.20;1.40;;;;;13.57;62.83;99654.16;5035505;28;45415;-57
2023/03/24 04:23:08;;;;;;;;;1.00;1.00;;;;;14.16;62.49;99760.13;5033899;28;45460;-56
2023/03/24 04:25:57;;;;;;;;;0.00;0.00;;;;;14.03;62.45;99744.84;5033981;28;45445;-57
2023/03/24 04:29:03;;;;;;;;;1.20;0.00;;;;;14.03;62.25;99758.63;5035586;28;45889;-58
2023/03/24 04:31:33;;;;;;;;;1.40;1.00;;;;;14.02;62.26;99763.31;5018914;28;45306;-59
2023/03/24 04:34:11;;;;;;;;;1.00;0.20;;;;;13.96;61.69;99773.47;5050548;28;45468;-57
2023/03/24 04:36:43;;;;;;;;;0.20;0.00;;;;;13.85;61.63;99766.16;5035620;28;45521;-55
2023/03/24 04:39:15;;;;;;;;;1.00;1.00;;;;;13.93;61.48;99773.16;5033677;28;46361;-58
2023/03/24 04:41:40;;;;;;;;;0.40;0.40;;;;;13.92;61.86;99764.03;5028863;28;45397;-58
2023/03/24 04:44:05;;;;;;;;;3.00;1.00;;;;;13.90;60.96;99766.22;5017106;28;45661;-57
2023/03/24 04:46:31;;;;;;;;;0.75;0.25;;;;;13.93;61.69;99781.41;5017095;28;45383;-58
2023/03/24 04:48:57;;;;;;;;;1.75;1.25;;;;;13.88;62.02;99773.91;5016627;28;45335;-57
2023/03/24 04:51:22;;;;;;;;;5.00;2.25;;;;;13.74;62.30;99756.94;5050477;28;45576;-58
2023/03/24 04:53:48;;;;;;;;;3.50;1.00;;;;;13.91;62.55;99789.09;5046505;28;45509;-58
2023/03/24 04:56:36;;;;;;;;;2.75;1.50;;;;;13.86;62.92;99795.41;5015023;28;45352;-58
2023/03/24 04:59:01;;;;;;;;;1.00;1.00;;;;;13.88;62.74;99804.22;5010426;28;47542;-58
2023/03/24 05:01:29;;;;;;;;;1.50;1.00;;;;;13.92;62.67;99810.06;4995053;28;45490;-57
2023/03/24 05:03:56;;;;;;;;;1.20;1.20;;;;;13.87;62.73;99807.28;4994773;28;45355;-58
2023/03/24 05:06:22;;;;;;;;;0.00;0.00;;;;;13.83;62.93;99816.03;4995597;28;45336;-56
2023/03/24 05:08:48;;;;;;;;;0.60;0.40;;;;;13.80;63.44;99816.56;4994608;28;45429;-57
2023/03/24 05:11:14;;;;;;;;;0.25;0.25;;;;;13.77;63.40;99816.25;5009679;28;45389;-57
2023/03/24 05:13:39;;;;;;;;;1.00;1.00;;;;;13.75;63.61;99813.75;4995206;28;45903;-57
2023/03/24 05:16:05;;;;;;;;;2.00;0.75;;;;;13.61;64.17;99782.94;4994837;28;45465;-58
2023/03/24 05:18:31;;;;;;;;;5.40;1.40;;;;;13.78;64.09;99824.25;4993212;28;45439;-58
2023/03/24 05:20:56;;;;;;;;;0.00;0.00;;;;;13.79;63.99;99836.13;4994813;28;45905;-57
2023/03/24 05:23:22;;;;;;;;;5.00;1.00;;;;;13.75;63.75;99826.69;4994322;28;45791;-57
2023/03/24 05:25:47;;;;;;;;;0.00;0.00;;;;;13.80;63.55;99835.03;5026685;28;45385;-57
2023/03/24 05:28:13;;;;;;;;;1.25;0.00;;;;;13.80;63.46;99835.03;4994358;28;46658;-59
2023/03/24 05:30:38;;;;;;;;;0.00;0.00;;;;;13.53;63.65;99798.03;5010513;28;45276;-57
2023/03/24 05:33:04;;;;;;;;;1.00;1.00;;;;;13.75;63.24;99840.47;5014385;28;45265;-57
2023/03/24 05:35:29;;;;;;;;;3.75;1.00;;;;;13.46;62.85;99808.41;5014687;28;45305;-55
2023/03/24 05:37:55;;;;;;;;;0.75;0.50;;;;;13.59;63.30;99848.53;5014260;28;46853;-56
2023/03/24 05:40:20;;;;;;;;;2.50;1.00;;;;;13.59;63.43;99850.44;5014229;28;45371;-58
2023/03/24 05:42:49;;;;;;;;;1.50;1.50;;;;;13.54;63.11;99854.81;5014494;28;45443;-56
2023/03/24 05:45:14;;;;;;;;;1.60;1.60;;;;;13.36;63.08;99824.75;5014031;28;45628;-58
2023/03/24 05:47:40;;;;;;;;;2.00;1.00;;;;;13.54;62.96;99867.75;5014086;28;45616;-58
2023/03/24 05:50:06;;;;;;;;;1.00;1.00;;;;;13.44;63.63;99851.06;5014088;28;45240;-58
2023/03/24 05:52:32;;;;;;;;;4.00;2.00;;;;;13.51;63.67;99854.50;5013450;28;45430;-59
2023/03/24 05:54:57;;;;;;;;;0.60;0.20;;;;;13.50;63.06;99861.91;5034499;28;45321;-58
2023/03/24 05:57:22;;;;;;;;;4.75;2.50;;;;;13.51;63.31;99860.00;5033591;28;45370;-58
2023/03/24 05:59:48;;;;;;;;;2.00;1.00;;;;;13.44;63.19;99873.09;5032671;28;45248;-58
2023/03/24 06:02:14;;;;;;;;;1.00;1.00;;;;;13.46;63.34;99887.50;5034336;28;45294;-60
2023/03/24 06:04:45;;;;;;;;;0.00;0.00;;;;;13.19;62.60;99855.09;5034442;28;45625;-58
2023/03/24 06:07:11;;;;;;;;;1.80;0.40;;;;;13.24;63.44;99886.28;5033664;28;46667;-58
2023/03/24 06:09:37;;;;;;;;;3.20;2.60;;;;;13.27;63.48;99907.00;4999295;28;45552;-58
2023/03/24 06:12:03;;;;;;;;;2.00;2.00;;;;;13.31;62.86;99908.19;4999938;28;45406;-57
2023/03/24 06:14:28;;;;;;;;;2.60;1.00;;;;;13.14;63.05;99881.47;5033142;28;45576;-59
2023/03/24 06:16:58;;;;;;;;;3.00;3.00;;;;;13.34;62.90;99910.44;4965737;28;45615;-58
2023/03/24 06:19:24;;;;;;;;;3.00;2.00;;;;;13.35;62.91;99911.28;4997486;28;45475;-58
2023/03/24 06:21:50;;;;;;;;;1.80;1.80;;;;;13.39;62.62;99917.94;5024030;28;45397;-57
2023/03/24 06:24:16;;;;;;;;;1.75;1.75;;;;;13.39;61.98;99921.53;5016209;28;45335;-57
2023/03/24 06:26:43;;;;;;;;;1.40;1.00;;;;;13.39;62.24;99924.31;5033779;28;46659;-57
2023/03/24 06:29:09;;;;;;;;;1.60;1.20;;;;;13.40;62.18;99938.94;5033969;28;45277;-58
2023/03/24 06:31:36;;;;;;;;;1.40;1.20;;;;;13.40;62.61;99928.72;5033743;28;45380;-58
2023/03/24 06:34:02;;;;;;;;;1.60;1.20;;;;;13.42;62.49;99932.09;5032808;28;45540;-59
2023/03/24 06:36:28;;;;;;;;;3.00;1.80;;;;;13.33;62.56;99939.06;5035178;28;46331;-58
2023/03/24 06:38:53;;;;;;;;;7.00;2.50;;;;;13.35;62.44;99945.16;5018575;28;46036;-58
2023/03/24 06:41:19;;;;;;;;;2.50;1.50;;;;;13.36;62.48;99949.63;5037349;28;45430;-56
2023/03/24 06:43:45;;;;;;;;;2.50;1.00;;;;;13.36;62.34;99949.63;5037333;28;45354;-59
2023/03/24 06:46:10;;;;;;;;;1.00;1.00;;;;;13.36;61.96;99957.88;5036384;28;45436;-57
2023/03/24 06:48:35;;;;;;;;;1.00;1.00;;;;;13.31;62.44;99948.69;5036557;28;45409;-57
2023/03/24 06:51:01;;;;;;;;;4.75;2.75;;;;;13.27;62.44;99956.63;5052742;28;45431;-56
2023/03/24 06:53:26;;;;;;;;;4.75;1.50;;;;;13.25;62.62;99951.34;5037002;28;45592;-56
2023/03/24 06:55:52;;;;;;;;;1.00;1.00;;;;;13.26;62.52;99947.53;5018633;28;48315;-57
2023/03/24 06:58:17;;;;;;;;;8.00;2.00;;;;;12.97;62.45;99920.00;5036994;28;45358;-58
2023/03/24 07:00:45;;;;;;;;;1.50;0.25;;;;;13.17;62.24;99975.75;5036967;28;45292;-57
2023/03/24 07:03:12;;;;;;;;;2.00;2.00;;;;;13.10;62.48;99970.38;5037346;28;45513;-57
2023/03/24 07:05:42;;;;;;;;;1.60;1.60;;;;;13.12;62.22;99974.53;5036514;28;47275;-57
2023/03/24 07:08:07;;;;;;;;;2.20;0.80;;;;;13.05;62.36;99948.22;5036471;28;45356;-57
2023/03/24 07:10:34;;;;;;;;;2.75;1.00;;;;;12.96;62.01;99943.13;5036632;28;45331;-57
2023/03/24 07:13:01;;;;;;;;;2.80;1.00;;;;;13.12;62.09;99966.28;5037167;28;45327;-56
2023/03/24 07:15:27;;;;;;;;;2.60;0.40;;;;;13.17;61.87;99979.31;5051465;28;46251;-57
2023/03/24 07:17:53;;;;;;;;;3.00;1.25;;;;;13.14;61.94;99986.16;5020951;28;46740;-58
2023/03/24 07:20:19;;;;;;;;;3.00;1.00;;;;;13.06;62.33;99986.56;5033212;28;45394;-58
2023/03/24 07:22:45;;;;;;;;;3.00;0.60;;;;;13.17;62.07;99995.03;5017299;28;45597;-56
2023/03/24 07:25:13;;;;;;;;;1.75;1.75;;;;;13.16;61.70;99994.19;5035183;28;46513;-56
2023/03/24 07:27:39;;;;;;;;;1.60;1.00;;;;;13.19;62.09;100001.97;5035880;28;45366;-57
2023/03/24 07:30:05;;;;;;;;;4.20;4.00;;;;;13.21;62.01;100002.53;5002447;28;45874;-58
2023/03/24 07:32:33;;;;;;;;;3.20;2.20;;;;;13.20;61.73;100011.03;5019033;28;45419;-57
2023/03/24 07:35:00;;;;;;;;;2.80;2.60;;;;;13.13;61.91;99981.72;5018538;28;46544;-58
2023/03/24 07:37:25;;;;;;;;;5.60;3.00;;;;;13.18;61.90;99996.69;5036370;28;45576;-59
2023/03/24 07:39:51;;;;;;;;;2.25;2.00;;;;;13.25;61.77;100009.22;5036250;28;45478;-59
2023/03/24 07:42:16;;;;;;;;;1.50;1.50;;;;;13.24;61.42;100002.03;5036620;28;45548;-59
2023/03/24 07:44:42;;;;;;;;;2.50;2.00;;;;;13.27;61.58;100018.09;5036147;28;46358;-59
2023/03/24 07:47:07;;;;;;;;;3.00;2.00;;;;;13.31;61.46;99998.28;5035385;28;45421;-60
2023/03/24 07:49:33;;;;;;;;;2.00;2.00;;;;;13.28;61.04;99997.72;5001392;28;45336;-57
2023/03/24 07:51:58;;;;;;;;;2.25;1.75;;;;;13.07;61.48;99952.41;5018115;28;45370;-59
2023/03/24 07:54:24;;;;;;;;;0.00;0.00;;;;;13.40;60.56;100010.59;5015927;28;45510;-60
2023/03/24 07:56:50;;;;;;;;;2.40;1.60;;;;;13.36;60.68;100001.97;5034135;28;45379;-59
2023/03/24 07:59:16;;;;;;;;;3.00;3.00;;;;;13.40;60.92;100007.84;5017903;28;45269;-59
2023/03/24 08:01:42;;;;;;;;;6.25;2.00;;;;;13.37;60.05;100008.31;5018281;28;45242;-59
2023/03/24 08:04:10;;;;;;;;;1.50;1.00;;;;;13.37;60.22;100025.69;5035330;28;45446;-57
2023/03/24 08:06:36;;;;;;;;;3.00;0.00;;;;;13.39;60.05;100018.00;5017658;28;45425;-57
2023/03/24 08:09:01;;;;;;;;;2.75;2.75;;;;;13.41;59.88;100023.28;5017715;28;45849;-57
2023/03/24 08:11:27;;;;;;;;;2.00;2.00;;;;;13.41;60.36;100018.59;5017674;28;45372;-58
2023/03/24 08:13:53;;;;;;;;;3.50;2.25;;;;;13.37;60.42;100014.69;5035281;28;45661;-56
2023/03/24 08:16:18;;;;;;;;;6.00;4.00;;;;;13.49;59.03;100016.53;5017132;28;45297;-57
2023/03/24 08:18:45;;;;;;;;;2.00;1.75;;;;;13.25;59.28;100008.38;5035752;28;45686;-58
2023/03/24 08:21:10;;;;;;;;;2.40;0.60;;;;;13.45;59.29;100034.66;5017327;28;45595;-55
2023/03/24 08:23:36;;;;;;;;;1.00;1.00;;;;;13.50;58.72;100018.22;5035630;28;46309;-56
2023/03/24 08:26:01;;;;;;;;;1.50;1.00;;;;;13.61;59.15;100017.31;5035298;28;45367;-56
2023/03/24 08:28:27;;;;;;;;;3.00;1.50;;;;;13.59;58.49;100018.63;5035419;28;45303;-55
2023/03/24 08:30:52;;;;;;;;;3.25;1.25;;;;;13.69;58.24;100036.22;5035495;28;45340;-55
2023/03/24 08:33:18;;;;;;;;;2.00;1.75;;;;;13.68;58.64;100047.47;5016871;28;46416;-56
2023/03/24 08:35:46;;;;;;;;;4.25;2.75;;;;;13.65;58.65;100034.19;5035076;28;45424;-56
2023/03/24 08:38:13;;;;;;;;;4.40;2.60;;;;;13.69;58.34;100044.47;5035232;28;45292;-57
2023/03/24 08:40:39;;;;;;;;;1.60;1.60;;;;;13.65;57.93;100018.47;5017556;28;45538;-58
2023/03/24 08:43:09;;;;;;;;;2.25;1.75;;;;;13.85;57.91;100052.16;5017208;28;48269;-60
2023/03/24 08:45:35;;;;;;;;;1.80;1.00;;;;;13.91;57.59;100053.91;5034525;28;45499;-58
2023/03/24 08:48:03;;;;;;;;;2.60;1.20;;;;;14.00;57.28;100052.41;5017346;28;45487;-56
2023/03/24 08:50:31;;;;;;;;;4.00;1.00;;;;;13.99;57.83;100059.03;5034817;28;45394;-56
2023/03/24 08:52:56;;;;;;;;;2.80;1.80;;;;;14.18;57.62;100067.00;5033272;28;46272;-58
2023/03/24 08:55:22;;;;;;;;;3.50;2.50;;;;;14.29;56.47;100059.75;5034941;28;45399;-59
2023/03/24 08:57:48;;;;;;;;;2.00;2.00;;;;;14.12;56.94;100048.69;5034679;28;45298;-58
2023/03/24 09:00:15;;;;;;;;;5.75;2.00;;;;;14.25;56.19;100075.13;5049670;28;45684;-58
2023/03/24 09:02:41;;;;;;;;;2.60;1.40;;;;;14.23;55.30;100090.03;5034634;28;46235;-57
2023/03/24 09:05:07;;;;;;;;;1.60;1.60;;;;;14.29;55.66;100087.34;5016795;28;45452;-58
2023/03/24 09:07:32;;;;;;;;;4.50;2.00;;;;;14.30;55.82;100087.06;5050323;28;45532;-59
2023/03/24 09:09:58;;;;;;;;;1.75;1.75;;;;;14.33;56.62;100075.53;5033947;28;45395;-59
2023/03/24 09:12:23;;;;;;;;;2.50;1.00;;;;;14.44;55.75;100072.91;5034371;28;46395;-56
2023/03/24 09:14:49;;;;;;;;;5.25;3.00;;;;;14.53;55.45;100076.06;5031557;28;45390;-57
2023/03/24 09:17:15;;;;;;;;;4.50;3.25;;;;;14.55;55.14;100079.41;5033846;28;45367;-56
2023/03/24 09:19:41;;;;;;;;;2.80;1.60;;;;;14.58;54.52;100090.78;5034655;28;45504;-57
2023/03/24 09:22:06;;;;;;;;;3.80;2.80;;;;;14.60;54.81;100083.09;5034111;28;46426;-56
2023/03/24 09:24:32;;;;;;;;;3.00;1.75;;;;;14.66;55.06;100088.69;5016329;28;45376;-57
2023/03/24 09:26:57;;;;;;;;;2.25;2.00;;;;;14.66;55.20;100097.78;5034532;28;45347;-58
2023/03/24 09:29:24;;;;;;;;;2.25;1.00;;;;;14.77;54.30;100080.31;5034735;28;45303;-57
2023/03/24 09:31:49;;;;;;;;;2.40;1.00;;;;;14.90;53.81;100097.59;5016381;28;46897;-60
2023/03/24 09:34:15;;;;;;;;;1.00;1.00;;;;;15.00;53.10;100092.19;5034167;28;45442;-57
2023/03/24 09:36:40;;;;;;;;;2.50;1.00;;;;;14.90;52.22;100069.97;5034254;28;45812;-58
2023/03/24 09:39:07;;;;;;;;;1.00;1.00;;;;;14.89;52.00;100057.25;5015708;28;45898;-58
2023/03/24 09:41:33;;;;;;;;;2.20;0.00;;;;;15.11;49.98;100090.38;5025189;28;45802;-59
2023/03/24 09:44:27;;;;;;;;;0.75;0.75;;;;;14.91;50.61;100079.94;5016255;28;45391;-58
2023/03/24 09:47:15;;;;;;;;;1.80;0.80;;;;;14.96;50.70;100096.56;5032155;28;45367;-59
2023/03/24 09:49:41;;;;;;;;;2.60;1.40;;;;;15.03;51.04;100102.75;5014427;28;45608;-58
2023/03/24 09:52:09;;;;;;;;;3.75;1.00;;;;;15.15;51.39;100098.97;5049080;28;46084;-57
2023/03/24 09:54:43;;;;;;;;;3.00;1.60;;;;;15.17;50.87;100099.59;5032579;28;45433;-59
2023/03/24 09:57:38;;;;;;;;;5.20;2.20;;;;;15.01;51.79;100070.94;5032517;28;45687;-57
2023/03/24 10:00:24;;;;;;;;;5.00;3.40;;;;;15.25;50.95;100120.38;5000758;28;45432;-57
2023/03/24 10:02:50;;;;;;;;;4.00;4.00;;;;;15.02;51.17;100076.19;5014551;28;45543;-57
2023/03/24 10:05:30;;;;;;;;;4.00;1.00;;;;;15.11;51.83;100104.19;5031758;28;45430;-58
2023/03/24 10:08:03;;;;;;;;;3.20;3.20;;;;;15.16;51.51;100112.56;5016200;28;45347;-58
2023/03/24 10:10:35;;;;;;;;;1.00;0.00;;;;;15.30;51.18;100090.03;5035689;28;45387;-58
2023/03/24 10:13:07;;;;;;;;;3.80;3.00;;;;;15.42;51.06;100099.03;5019115;28;48932;-57
2023/03/24 10:15:40;;;;;;;;;1.60;1.00;;;;;15.54;50.74;100103.56;5019909;28;45375;-56
2023/03/24 10:18:11;;;;;;;;;1.00;1.00;;;;;15.66;50.48;100100.63;4997302;28;45506;-56
2023/03/24 10:20:45;;;;;;;;;2.00;1.60;;;;;15.80;48.75;100107.41;5035786;28;45500;-57
2023/03/24 10:23:37;;;;;;;;;2.40;2.00;;;;;15.95;49.34;100105.94;5007187;28;45549;-57
2023/03/24 10:26:13;;;;;;;;;3.00;1.20;;;;;15.92;48.90;100078.75;5017748;28;45451;-57
2023/03/24 10:28:59;;;;;;;;;1.00;1.00;;;;;16.21;48.98;100109.72;5018281;28;45441;-56
2023/03/24 10:31:29;;;;;;;;;3.40;2.00;;;;;16.31;48.24;100108.97;5018313;28;45699;-57
2023/03/24 10:33:55;;;;;;;;;3.60;1.80;;;;;16.26;48.52;100118.06;5016570;28;46453;-56
2023/03/24 10:36:22;;;;;;;;;2.00;2.00;;;;;16.25;48.53;100102.56;5018114;28;45395;-58
2023/03/24 10:38:47;;;;;;;;;1.60;1.60;;;;;16.31;48.39;100114.50;5017954;28;45308;-57
2023/03/24 10:41:18;;;;;;;;;2.75;2.00;;;;;16.39;48.31;100104.88;5010747;28;45861;-57
2023/03/24 10:43:44;;;;;;;;;3.80;3.80;;;;;16.45;48.03;100131.50;5057516;28;46721;-58
2023/03/24 10:46:12;;;;;;;;;3.50;2.00;;;;;16.36;48.35;100095.16;5033878;28;45362;-57
2023/03/24 10:48:43;;;;;;;;;1.20;1.00;;;;;16.31;48.10;100092.34;5034213;28;45461;-58
2023/03/24 10:51:14;;;;;;;;;13.00;9.80;;;;;16.50;48.35;100122.38;5035532;28;45304;-58
2023/03/24 10:53:40;;;;;;;;;3.80;3.00;;;;;16.58;48.01;100121.88;5012187;28;46268;-58
2023/03/24 10:56:06;;;;;;;;;0.00;0.00;;;;;16.55;47.19;100105.81;5032779;28;45944;-58
2023/03/24 10:58:36;;;;;;;;;2.40;2.00;;;;;16.72;47.04;100102.84;5014818;28;45477;-60
2023/03/24 11:01:02;;;;;;;;;2.80;2.80;;;;;16.88;46.66;100098.22;5034274;28;45335;-60
2023/03/24 11:03:29;;;;;;;;;3.50;2.00;;;;;16.90;46.62;100126.50;5014797;28;45466;-58
2023/03/24 11:06:00;;;;;;;;;2.00;1.00;;;;;16.26;47.50;100050.78;5015949;28;45410;-59
2023/03/24 11:08:33;;;;;;;;;1.20;0.20;;;;;16.60;47.14;100118.84;5049333;28;45424;-61
2023/03/24 11:10:58;;;;;;;;;2.80;0.40;;;;;16.44;48.38;100123.44;5032703;28;45437;-56
2023/03/24 11:13:28;;;;;;;;;5.50;2.00;;;;;16.35;48.23;100128.66;5011253;28;47416;-60
2023/03/24 11:16:08;;;;;;;;;4.60;1.40;;;;;16.21;48.07;100103.34;5034599;28;45760;-56
2023/03/24 11:18:33;;;;;;;;;1.80;1.00;;;;;16.37;48.05;100116.19;5034930;28;45844;-56
2023/03/24 11:21:05;;;;;;;;;3.00;2.00;;;;;16.54;47.38;100095.81;5017421;28;45411;-59
2023/03/24 11:23:38;;;;;;;;;3.60;0.80;;;;;16.65;46.55;100105.84;5016504;28;46624;-58
2023/03/24 11:26:14;;;;;;;;;1.80;1.80;;;;;16.78;47.26;100123.09;5016881;28;45584;-59
2023/03/24 11:28:51;;;;;;;;;0.60;0.60;;;;;16.73;47.12;100104.50;5050419;28;45390;-56
2023/03/24 11:31:29;;;;;;;;;1.00;1.00;;;;;16.63;46.64;100105.28;5035404;28;45433;-58
2023/03/24 11:34:10;;;;;;;;;1.00;0.80;;;;;16.49;46.09;100082.75;5032249;28;46619;-59
2023/03/24 11:36:36;;;;;;;;;2.00;1.00;;;;;16.97;46.18;100111.56;5028888;28;45799;-59
2023/03/24 11:39:16;;;;;;;;;1.20;1.20;;;;;17.14;46.45;100114.16;5049041;28;45768;-59
2023/03/24 11:41:44;;;;;;;;;2.60;2.00;;;;;17.18;45.49;100098.66;5027777;28;45792;-56
2023/03/24 11:44:21;;;;;;;;;1.80;0.60;;;;;17.25;45.81;100110.31;5015390;28;45705;-60